Other Surface Observations
Issued by NWS Great Falls, MT

Home | Current Version | Previous Version | Text Only | Print | Product List | Glossary On
Versions: 1 2 3 4 5 6 7 8 9 10 11 12 13 14 15 16 17 18 19 20 21 22 23 24 25 26 27 28 29 30 31 32 33 34 35 36 37 38 39 40 41 42 43 44 45 46 47 48 49 50
414
SXUS55 KTFX 231444
OSOTFX
AREA AWOS OBSERVATIONS
NATIONAL WEATHER SERVICE GREAT FALLS MT
0844 AM MDT SUN APR 23 2017

METAR KPWD 231445Z AUTO 10015KT 2SM M01/M03 A3002 RMK PLENTYWOOD
METAR KPO1 231445Z AUTO 10014G23KT 10SM 01/M01 A2996 RMK POPLAR
METAR KS71 231445Z AUTO 10012G18KT 3SM 04/03 A2985 RMK CHINOOK
METAR K79S 231445Z AUTO 10SM A2979 RMK FORT BENTON
METAR K38S 231445Z AUTO 06003KT 10SM 05/02 A2986 RMK DEER LODGE
METAR K3U3 231445Z AUTO 01006KT 10SM 06/M02 A2983 RMK ANACONDA
METAR K6S5 231445Z AUTO 34005KT 6SM 07/06 A2983 RMK HAMILTON
METAR KS59 231445Z AUTO 00000KT 10SM 06/03 A2984 RMK LIBBY
METAR K88M 231445Z AUTO 00000KT 10SM 07/03 A2983 RMK EUREKA



USA.gov is the U.S. government's official web portal to all federal, state and local government web resources and services.